Time;durP1;ratioP1;P1;durP2;ratioP2;P2;SDS_P1;SDS_P2;PMS_P1;PMS_P2;Temp;Humidity;BMP_temperature;BMP_pressure;BME280_temperature;BME280_humidity;BME280_pressure;Samples;Min_cycle;Max_cycle;Signal;HPM_P1;HPM_P2
2022/05/14 00:01:32;;;;;;;;;;;18.00;62.00;;;;;;5089132;28;19950;-59
2022/05/14 00:03:58;;;;;;;;;;;17.90;61.60;;;;;;5097157;28;20371;-59
2022/05/14 00:06:25;;;;;;;;;;;17.90;61.90;;;;;;5095831;28;19908;-59
2022/05/14 00:08:51;;;;;;;;;;;17.70;62.60;;;;;;5097105;28;19911;-59
2022/05/14 00:14:03;;;;;;;;;;;17.60;62.80;;;;;;5088555;28;19934;-59
2022/05/14 00:16:29;;;;;;;;;;;17.50;62.80;;;;;;5076678;28;19935;-59
2022/05/14 00:18:54;;;;;;;;;;;17.50;62.60;;;;;;5085360;28;19904;-59
2022/05/14 00:21:21;;;;;;;;;;;17.40;63.30;;;;;;5095721;28;20364;-59
2022/05/14 00:23:46;;;;;;;;;;;17.40;63.10;;;;;;5088531;28;19919;-59
2022/05/14 00:26:12;;;;;;;;;;;17.40;63.70;;;;;;5074204;28;20283;-59
2022/05/14 00:28:38;;;;;;;;;;;17.40;63.00;;;;;;5088710;28;20367;-59
2022/05/14 00:31:03;;;;;;;;;;;17.30;63.70;;;;;;5085834;28;19911;-59
2022/05/14 00:33:29;;;;;;;;;;;17.30;62.90;;;;;;5088109;28;20287;-59
2022/05/14 00:35:55;;;;;;;;;;;17.30;63.40;;;;;;5087261;28;19910;-59
2022/05/14 00:38:20;;;;;;;;;;;17.30;63.10;;;;;;5091226;28;20435;-59
2022/05/14 00:40:48;;;;;;;;;;;17.30;64.30;;;;;;5089982;28;19915;-59
2022/05/14 00:43:14;;;;;;;;;;;17.30;64.00;;;;;;5096377;28;19908;-59
2022/05/14 00:45:41;;;;;;;;;;;17.30;65.30;;;;;;5095292;28;19993;-59
2022/05/14 00:48:07;;;;;;;;;;;17.20;66.20;;;;;;5096334;28;19969;-59
2022/05/14 00:50:37;;;;;;;;;;;17.20;65.40;;;;;;5095378;28;19911;-59
2022/05/14 00:53:06;;;;;;;;;;;17.20;64.70;;;;;;5092238;28;20011;-59
2022/05/14 00:55:31;;;;;;;;;;;17.20;64.70;;;;;;5092999;28;19911;-59
2022/05/14 00:57:57;;;;;;;;;;;17.20;65.90;;;;;;5081276;28;19908;-58
2022/05/14 01:00:24;;;;;;;;;;;17.20;65.70;;;;;;5089640;28;19943;-59
2022/05/14 01:02:50;;;;;;;;;;;17.10;66.10;;;;;;5095692;28;19912;-59
2022/05/14 01:05:17;;;;;;;;;;;17.10;66.60;;;;;;5095558;28;19948;-59
2022/05/14 01:07:43;;;;;;;;;;;17.00;66.60;;;;;;5095841;28;19908;-59
2022/05/14 01:10:12;;;;;;;;;;;17.00;66.20;;;;;;5093854;28;20356;-59
2022/05/14 01:12:43;;;;;;;;;;;17.00;66.40;;;;;;5086347;28;20283;-59
2022/05/14 01:15:12;;;;;;;;;;;17.00;67.00;;;;;;5082451;28;19912;-59
2022/05/14 01:17:38;;;;;;;;;;;16.90;66.40;;;;;;5095738;28;19907;-59
2022/05/14 01:20:04;;;;;;;;;;;16.90;66.20;;;;;;5092021;28;20271;-59
2022/05/14 01:22:33;;;;;;;;;;;16.90;66.30;;;;;;5075380;28;20449;-59
2022/05/14 01:28:01;;;;;;;;;;;16.90;65.70;;;;;;5089562;28;19927;-58
2022/05/14 01:30:28;;;;;;;;;;;16.90;65.70;;;;;;5087182;28;19908;-59
2022/05/14 01:33:05;;;;;;;;;;;16.90;65.60;;;;;;5075946;28;19965;-59
2022/05/14 01:35:32;;;;;;;;;;;16.90;65.20;;;;;;5077447;28;20003;-59
2022/05/14 01:37:57;;;;;;;;;;;16.90;65.50;;;;;;5085823;28;19905;-59
2022/05/14 01:40:23;;;;;;;;;;;16.80;65.30;;;;;;5090669;28;19911;-59
2022/05/14 01:42:48;;;;;;;;;;;16.80;65.50;;;;;;5086548;28;19908;-59
2022/05/14 01:45:14;;;;;;;;;;;16.70;65.60;;;;;;5090331;28;19969;-58
2022/05/14 01:47:39;;;;;;;;;;;16.70;65.80;;;;;;5095362;28;19908;-59
2022/05/14 01:50:05;;;;;;;;;;;16.70;66.00;;;;;;5094152;28;19989;-59
2022/05/14 01:52:31;;;;;;;;;;;16.70;65.80;;;;;;5092431;28;19908;-59
2022/05/14 01:54:56;;;;;;;;;;;16.70;66.40;;;;;;5092892;28;19908;-59
2022/05/14 01:57:22;;;;;;;;;;;16.60;66.10;;;;;;5075305;28;19908;-59
2022/05/14 01:59:47;;;;;;;;;;;16.60;66.30;;;;;;5078222;28;19904;-59
2022/05/14 02:02:13;;;;;;;;;;;16.60;66.00;;;;;;5088458;28;19908;-59
2022/05/14 02:04:39;;;;;;;;;;;16.60;66.30;;;;;;5074570;28;19904;-59
2022/05/14 02:07:05;;;;;;;;;;;16.60;66.20;;;;;;5074615;28;20367;-59
2022/05/14 02:09:31;;;;;;;;;;;16.70;66.60;;;;;;5086231;28;20356;-59
2022/05/14 02:11:56;;;;;;;;;;;16.60;66.70;;;;;;5090089;28;19934;-59
2022/05/14 02:14:22;;;;;;;;;;;16.60;66.50;;;;;;5074524;28;19905;-59
2022/05/14 02:16:47;;;;;;;;;;;16.60;66.60;;;;;;5077738;28;19904;-59
2022/05/14 02:19:13;;;;;;;;;;;16.60;66.60;;;;;;5093989;28;19943;-59
2022/05/14 02:21:38;;;;;;;;;;;16.70;67.20;;;;;;5079111;28;19916;-59
2022/05/14 02:24:04;;;;;;;;;;;16.60;67.10;;;;;;5093143;28;19908;-59
2022/05/14 02:26:32;;;;;;;;;;;16.60;67.50;;;;;;5087070;28;19904;-59
2022/05/14 02:28:57;;;;;;;;;;;16.60;67.50;;;;;;5078572;28;19935;-59
2022/05/14 02:31:23;;;;;;;;;;;16.60;67.40;;;;;;5076774;28;19905;-59
2022/05/14 02:33:49;;;;;;;;;;;16.60;67.60;;;;;;5075283;28;19908;-59
2022/05/14 02:36:14;;;;;;;;;;;16.60;67.50;;;;;;5093302;28;19904;-59
2022/05/14 02:38:40;;;;;;;;;;;16.60;67.40;;;;;;5087939;28;19908;-59
2022/05/14 02:41:06;;;;;;;;;;;16.60;67.50;;;;;;5094232;28;20052;-59
2022/05/14 02:43:32;;;;;;;;;;;16.70;67.60;;;;;;5093967;28;20373;-59
2022/05/14 02:45:58;;;;;;;;;;;16.70;67.70;;;;;;5094180;28;19908;-59
2022/05/14 02:48:25;;;;;;;;;;;16.80;67.90;;;;;;5093991;28;19911;-58
2022/05/14 02:50:51;;;;;;;;;;;16.80;67.70;;;;;;5084039;28;20314;-59
2022/05/14 02:53:17;;;;;;;;;;;16.80;67.90;;;;;;5092877;28;19908;-58
2022/05/14 02:55:42;;;;;;;;;;;16.90;67.80;;;;;;5088934;28;20318;-59
2022/05/14 02:58:08;;;;;;;;;;;16.90;67.70;;;;;;5076863;28;19930;-59
2022/05/14 03:00:33;;;;;;;;;;;16.90;67.70;;;;;;5093661;28;19911;-59
2022/05/14 03:02:59;;;;;;;;;;;16.90;68.00;;;;;;5093615;28;19908;-59
2022/05/14 03:05:25;;;;;;;;;;;17.00;67.90;;;;;;5090914;28;19966;-59
2022/05/14 03:07:50;;;;;;;;;;;17.00;67.80;;;;;;5082207;28;19930;-59
2022/05/14 03:10:16;;;;;;;;;;;17.00;67.90;;;;;;5093460;28;19904;-59
2022/05/14 03:12:42;;;;;;;;;;;17.10;67.80;;;;;;5093622;28;19957;-59
2022/05/14 03:15:09;;;;;;;;;;;17.10;68.00;;;;;;5092100;28;19908;-59
2022/05/14 03:17:35;;;;;;;;;;;17.10;68.00;;;;;;5087101;28;20379;-59
2022/05/14 03:20:01;;;;;;;;;;;17.10;68.10;;;;;;5086383;28;19904;-59
2022/05/14 03:22:27;;;;;;;;;;;17.10;68.10;;;;;;5092477;28;19916;-59
2022/05/14 03:24:52;;;;;;;;;;;17.10;68.30;;;;;;5087608;28;20002;-59
2022/05/14 03:27:18;;;;;;;;;;;17.10;68.60;;;;;;5081442;28;19915;-59
2022/05/14 03:29:44;;;;;;;;;;;17.10;68.70;;;;;;5091333;28;19908;-59
2022/05/14 03:32:09;;;;;;;;;;;17.10;68.80;;;;;;5093443;28;19944;-59
2022/05/14 03:34:36;;;;;;;;;;;17.10;68.60;;;;;;5092845;28;19912;-59
2022/05/14 03:37:02;;;;;;;;;;;17.00;68.80;;;;;;5093599;28;20378;-58
2022/05/14 03:39:28;;;;;;;;;;;17.10;68.90;;;;;;5079784;28;19905;-59
2022/05/14 03:41:53;;;;;;;;;;;17.00;69.00;;;;;;5090976;28;19915;-59
2022/05/14 03:44:19;;;;;;;;;;;17.10;69.20;;;;;;5093238;28;20378;-59
2022/05/14 03:46:44;;;;;;;;;;;17.00;69.60;;;;;;5087476;28;19904;-59
2022/05/14 03:49:10;;;;;;;;;;;17.00;69.40;;;;;;5073072;28;19908;-59
2022/05/14 03:51:36;;;;;;;;;;;17.00;69.70;;;;;;5084200;28;19908;-59
2022/05/14 03:54:02;;;;;;;;;;;17.00;69.80;;;;;;5092577;28;20355;-59
2022/05/14 03:56:27;;;;;;;;;;;17.00;69.80;;;;;;5076126;28;19905;-59
2022/05/14 03:58:53;;;;;;;;;;;17.00;70.10;;;;;;5081040;28;19912;-58
2022/05/14 04:01:18;;;;;;;;;;;17.00;70.20;;;;;;5079124;28;20382;-59
2022/05/14 04:03:45;;;;;;;;;;;16.90;70.60;;;;;;5092832;28;19914;-58
2022/05/14 04:06:11;;;;;;;;;;;17.00;70.60;;;;;;5088670;28;19904;-59
2022/05/14 04:08:37;;;;;;;;;;;16.90;70.60;;;;;;5083636;28;19957;-59
2022/05/14 04:11:03;;;;;;;;;;;16.90;70.70;;;;;;5093066;28;20352;-59
2022/05/14 04:13:29;;;;;;;;;;;16.90;70.80;;;;;;5092854;28;19904;-59
2022/05/14 04:15:54;;;;;;;;;;;16.90;70.80;;;;;;5088857;28;20261;-59
2022/05/14 04:18:24;;;;;;;;;;;16.90;71.20;;;;;;5080271;28;19904;-59
2022/05/14 04:20:53;;;;;;;;;;;16.90;71.10;;;;;;5077074;28;20344;-58
2022/05/14 04:23:18;;;;;;;;;;;16.90;71.30;;;;;;5078868;28;19913;-59
2022/05/14 04:25:44;;;;;;;;;;;16.90;71.30;;;;;;5077771;28;19912;-59
2022/05/14 04:28:10;;;;;;;;;;;16.90;71.60;;;;;;5091060;28;19908;-59
2022/05/14 04:30:35;;;;;;;;;;;16.80;72.00;;;;;;5091697;28;20065;-59
2022/05/14 04:33:01;;;;;;;;;;;16.80;72.20;;;;;;5087806;28;20308;-59
2022/05/14 04:35:26;;;;;;;;;;;16.70;72.70;;;;;;5086715;28;20279;-58
2022/05/14 04:37:52;;;;;;;;;;;16.70;73.30;;;;;;5080473;28;19912;-58
2022/05/14 04:40:17;;;;;;;;;;;16.60;73.30;;;;;;5071475;28;19904;-58
2022/05/14 04:42:43;;;;;;;;;;;16.60;73.00;;;;;;5083757;28;19911;-57
2022/05/14 04:45:09;;;;;;;;;;;16.60;72.90;;;;;;5092888;28;19999;-58
2022/05/14 04:47:35;;;;;;;;;;;16.60;74.30;;;;;;5094920;28;19915;-58
2022/05/14 04:50:00;;;;;;;;;;;16.60;73.40;;;;;;5087820;28;19912;-58
2022/05/14 04:52:26;;;;;;;;;;;16.60;73.40;;;;;;5084571;28;19962;-58
2022/05/14 04:54:52;;;;;;;;;;;16.60;73.40;;;;;;5084908;28;19908;-58
2022/05/14 04:57:17;;;;;;;;;;;16.70;73.90;;;;;;5089012;28;19961;-58
2022/05/14 04:59:43;;;;;;;;;;;16.70;74.50;;;;;;5092171;28;19915;-58
2022/05/14 05:04:52;;;;;;;;;;;16.90;74.20;;;;;;5095136;28;19927;-58
2022/05/14 05:07:18;;;;;;;;;;;16.90;74.10;;;;;;5093238;28;19904;-58
2022/05/14 05:09:44;;;;;;;;;;;16.90;74.00;;;;;;5094926;28;19904;-58
2022/05/14 05:12:10;;;;;;;;;;;17.00;74.20;;;;;;5095055;28;20284;-58
2022/05/14 05:14:36;;;;;;;;;;;17.10;74.20;;;;;;5092763;28;19990;-58
2022/05/14 05:17:02;;;;;;;;;;;17.20;74.30;;;;;;5095129;28;19915;-58
2022/05/14 05:19:28;;;;;;;;;;;17.40;74.30;;;;;;5095061;28;20245;-58
2022/05/14 05:21:53;;;;;;;;;;;17.50;74.20;;;;;;5030733;28;1556453;-58
2022/05/14 05:24:19;;;;;;;;;;;17.70;74.20;;;;;;5078794;28;19965;-58
2022/05/14 05:26:44;;;;;;;;;;;17.80;73.80;;;;;;5090733;28;19915;-58
2022/05/14 05:29:10;;;;;;;;;;;18.00;73.60;;;;;;5086999;28;20275;-58
2022/05/14 05:31:35;;;;;;;;;;;18.10;73.40;;;;;;5095847;28;19957;-58
2022/05/14 05:34:02;;;;;;;;;;;18.20;73.40;;;;;;5094937;28;19920;-58
2022/05/14 05:36:27;;;;;;;;;;;18.30;73.00;;;;;;5082460;28;19904;-57
2022/05/14 05:38:53;;;;;;;;;;;18.40;73.00;;;;;;5094626;28;19911;-58
2022/05/14 05:41:19;;;;;;;;;;;18.50;72.80;;;;;;5093407;28;19912;-58
2022/05/14 05:43:44;;;;;;;;;;;18.60;72.60;;;;;;5088605;28;19912;-58
2022/05/14 05:46:11;;;;;;;;;;;18.60;72.50;;;;;;5080963;28;19915;-58
2022/05/14 05:48:37;;;;;;;;;;;18.60;72.20;;;;;;5086012;28;20395;-57
2022/05/14 05:51:03;;;;;;;;;;;18.60;72.20;;;;;;5089649;28;20360;-58
2022/05/14 05:58:57;;;;;;;;;;;18.60;72.50;;;;;;5094608;28;19958;-58
2022/05/14 06:01:23;;;;;;;;;;;18.60;72.70;;;;;;5095251;28;19907;-58
2022/05/14 06:03:49;;;;;;;;;;;18.60;72.70;;;;;;5093938;28;19957;-58
2022/05/14 06:06:14;;;;;;;;;;;18.70;72.70;;;;;;5094782;28;19998;-58
2022/05/14 06:08:40;;;;;;;;;;;18.70;72.70;;;;;;5094990;28;19904;-58
2022/05/14 06:11:05;;;;;;;;;;;18.70;72.70;;;;;;5094969;28;19908;-58
2022/05/14 06:13:32;;;;;;;;;;;18.80;72.80;;;;;;5094923;28;19908;-58
2022/05/14 06:15:59;;;;;;;;;;;18.80;72.70;;;;;;5094232;28;19904;-58
2022/05/14 06:18:25;;;;;;;;;;;19.00;72.80;;;;;;5081539;28;20461;-58
2022/05/14 06:20:51;;;;;;;;;;;19.00;72.60;;;;;;5094116;28;19904;-58
2022/05/14 06:23:16;;;;;;;;;;;19.10;72.60;;;;;;5080602;28;19920;-57
2022/05/14 06:25:42;;;;;;;;;;;19.20;72.50;;;;;;5074814;28;19904;-58
2022/05/14 06:28:07;;;;;;;;;;;19.20;72.50;;;;;;5074446;28;19908;-58
2022/05/14 06:30:33;;;;;;;;;;;19.20;72.10;;;;;;5074725;28;19904;-58
2022/05/14 06:33:06;;;;;;;;;;;19.30;72.00;;;;;;5089670;28;19904;-58
2022/05/14 06:35:32;;;;;;;;;;;19.30;71.90;;;;;;5089545;28;20317;-58
2022/05/14 06:37:58;;;;;;;;;;;19.30;71.90;;;;;;5086539;28;19908;-58
2022/05/14 06:40:24;;;;;;;;;;;19.40;71.90;;;;;;5074015;28;19911;-58
2022/05/14 06:42:49;;;;;;;;;;;19.30;71.30;;;;;;5093327;28;19939;-58
2022/05/14 06:45:15;;;;;;;;;;;19.30;71.40;;;;;;5081999;28;19912;-58
2022/05/14 06:47:40;;;;;;;;;;;19.30;71.40;;;;;;5073709;28;19905;-58
2022/05/14 06:50:06;;;;;;;;;;;19.40;71.60;;;;;;5085869;28;19999;-57
2022/05/14 06:52:32;;;;;;;;;;;19.40;71.40;;;;;;5088099;28;20322;-58
2022/05/14 06:54:59;;;;;;;;;;;19.40;71.60;;;;;;5081631;28;19960;-58
2022/05/14 06:57:25;;;;;;;;;;;19.50;71.60;;;;;;5088470;28;19904;-58
2022/05/14 06:59:51;;;;;;;;;;;19.60;71.60;;;;;;5093227;28;19911;-59
2022/05/14 07:02:17;;;;;;;;;;;19.70;71.50;;;;;;5092747;28;20372;-58
2022/05/14 07:07:27;;;;;;;;;;;19.90;70.90;;;;;;5089427;28;19947;-58
2022/05/14 07:09:54;;;;;;;;;;;19.90;70.70;;;;;;5088093;28;19970;-58
2022/05/14 07:12:19;;;;;;;;;;;19.90;70.40;;;;;;5093806;28;19908;-58
2022/05/14 07:14:46;;;;;;;;;;;19.90;70.50;;;;;;5091931;28;20375;-58
2022/05/14 07:17:11;;;;;;;;;;;20.00;70.70;;;;;;5092717;28;19908;-58
2022/05/14 07:19:37;;;;;;;;;;;20.00;70.50;;;;;;5088583;28;19911;-58
2022/05/14 07:22:03;;;;;;;;;;;20.10;70.50;;;;;;5085953;28;19930;-58
2022/05/14 07:24:29;;;;;;;;;;;20.10;70.70;;;;;;5090896;28;20011;-59
2022/05/14 07:26:56;;;;;;;;;;;20.10;71.00;;;;;;5092907;28;19929;-58
2022/05/14 07:29:23;;;;;;;;;;;20.20;70.70;;;;;;5093444;28;19916;-58
2022/05/14 07:31:49;;;;;;;;;;;20.20;70.80;;;;;;5086541;28;19950;-58
2022/05/14 07:34:15;;;;;;;;;;;20.30;70.80;;;;;;5083709;28;19920;-58
2022/05/14 07:36:50;;;;;;;;;;;20.30;70.90;;;;;;5087103;28;19911;-58
2022/05/14 07:39:16;;;;;;;;;;;20.50;71.20;;;;;;5091174;28;20007;-58
2022/05/14 07:41:44;;;;;;;;;;;20.50;70.70;;;;;;5073308;28;20407;-59
2022/05/14 07:44:11;;;;;;;;;;;20.60;70.90;;;;;;5084857;28;19953;-58
2022/05/14 07:46:38;;;;;;;;;;;20.60;70.60;;;;;;5092903;28;19903;-58
2022/05/14 07:49:10;;;;;;;;;;;20.60;70.40;;;;;;5092743;28;19947;-59
2022/05/14 07:51:36;;;;;;;;;;;20.60;70.10;;;;;;5090074;28;19957;-58
2022/05/14 07:54:01;;;;;;;;;;;20.60;70.00;;;;;;5092136;28;20016;-58
2022/05/14 07:56:27;;;;;;;;;;;20.60;70.20;;;;;;5087020;28;19904;-58
2022/05/14 07:58:52;;;;;;;;;;;20.60;70.20;;;;;;5073828;28;20033;-57
2022/05/14 08:01:18;;;;;;;;;;;20.70;70.50;;;;;;5091376;28;20017;-57
2022/05/14 08:03:44;;;;;;;;;;;20.70;70.30;;;;;;5092131;28;19916;-58
2022/05/14 08:06:11;;;;;;;;;;;20.70;70.70;;;;;;5091719;28;19908;-58
2022/05/14 08:08:37;;;;;;;;;;;20.80;70.60;;;;;;5079707;28;19905;-58
2022/05/14 08:11:02;;;;;;;;;;;20.80;70.60;;;;;;5088977;28;19973;-58
2022/05/14 08:13:29;;;;;;;;;;;20.90;70.40;;;;;;5076861;28;19938;-58
2022/05/14 08:15:54;;;;;;;;;;;21.00;70.40;;;;;;5091583;28;19995;-58
2022/05/14 08:18:20;;;;;;;;;;;21.00;70.20;;;;;;5082056;28;20344;-58
2022/05/14 08:20:47;;;;;;;;;;;21.10;70.30;;;;;;5076115;28;19913;-58
2022/05/14 08:25:57;;;;;;;;;;;21.20;69.80;;;;;;5078051;28;19911;-58
2022/05/14 08:28:23;;;;;;;;;;;21.20;70.00;;;;;;5076750;28;20468;-59
2022/05/14 08:30:48;;;;;;;;;;;21.30;70.00;;;;;;5094075;28;19947;-58
2022/05/14 08:33:14;;;;;;;;;;;21.40;69.90;;;;;;5096539;28;19904;-58
2022/05/14 08:35:39;;;;;;;;;;;21.50;69.50;;;;;;5091478;28;19908;-58
2022/05/14 08:38:06;;;;;;;;;;;21.70;69.40;;;;;;5079615;28;20364;-58
2022/05/14 08:40:33;;;;;;;;;;;21.80;69.10;;;;;;5080513;28;19908;-58
2022/05/14 08:43:01;;;;;;;;;;;21.80;69.10;;;;;;5089154;28;20327;-58
2022/05/14 08:45:27;;;;;;;;;;;21.90;68.90;;;;;;5096370;28;19904;-58
2022/05/14 08:48:01;;;;;;;;;;;21.90;68.40;;;;;;5092438;28;19904;-58
2022/05/14 08:50:28;;;;;;;;;;;22.00;68.20;;;;;;5095865;28;19978;-58
2022/05/14 08:53:00;;;;;;;;;;;22.00;68.10;;;;;;5087090;28;19951;-58
2022/05/14 08:55:27;;;;;;;;;;;22.00;67.90;;;;;;5092412;28;20309;-58
2022/05/14 08:57:59;;;;;;;;;;;22.00;67.60;;;;;;5096154;28;20378;-58
2022/05/14 09:00:24;;;;;;;;;;;22.00;67.70;;;;;;5096135;28;19950;-58
2022/05/14 09:02:51;;;;;;;;;;;22.00;67.40;;;;;;5095922;28;20328;-59
2022/05/14 09:05:19;;;;;;;;;;;22.00;67.20;;;;;;5093481;28;19954;-58
2022/05/14 09:07:45;;;;;;;;;;;22.00;67.10;;;;;;5096326;28;19904;-58
2022/05/14 09:10:24;;;;;;;;;;;22.00;66.90;;;;;;5095358;28;19916;-59
2022/05/14 09:12:52;;;;;;;;;;;22.00;66.90;;;;;;5095730;28;19998;-60
2022/05/14 09:15:17;;;;;;;;;;;21.90;66.50;;;;;;5084323;28;19950;-60
2022/05/14 09:17:43;;;;;;;;;;;21.80;66.30;;;;;;5074200;28;19909;-58
2022/05/14 09:20:09;;;;;;;;;;;21.70;66.60;;;;;;5087967;28;19911;-58
2022/05/14 09:22:44;;;;;;;;;;;21.70;67.10;;;;;;5089504;28;19920;-58
2022/05/14 09:25:21;;;;;;;;;;;21.60;66.60;;;;;;5090918;28;19964;-58
2022/05/14 09:27:56;;;;;;;;;;;21.60;66.70;;;;;;5088141;28;19927;-60
2022/05/14 09:30:23;;;;;;;;;;;21.50;66.60;;;;;;5090970;28;19942;-60
2022/05/14 09:32:49;;;;;;;;;;;21.50;66.40;;;;;;5093553;28;19943;-60
2022/05/14 09:35:25;;;;;;;;;;;21.50;66.90;;;;;;5090987;28;20230;-60
2022/05/14 09:37:51;;;;;;;;;;;21.40;67.00;;;;;;5091207;28;19908;-59
2022/05/14 09:40:22;;;;;;;;;;;21.40;67.00;;;;;;5088215;28;19908;-60
2022/05/14 09:42:49;;;;;;;;;;;21.40;67.20;;;;;;5093761;28;20003;-59
2022/05/14 09:45:23;;;;;;;;;;;21.30;67.30;;;;;;5090868;28;19908;-59
2022/05/14 09:47:49;;;;;;;;;;;21.20;67.80;;;;;;5093321;28;20279;-58
2022/05/14 09:50:29;;;;;;;;;;;21.10;68.00;;;;;;5091835;28;19912;-58
2022/05/14 09:52:57;;;;;;;;;;;21.00;68.30;;;;;;5089692;28;19926;-58
2022/05/14 09:55:25;;;;;;;;;;;20.90;68.50;;;;;;5092019;28;20271;-58
2022/05/14 09:58:03;;;;;;;;;;;20.90;68.60;;;;;;5095176;28;20252;-59
2022/05/14 10:00:36;;;;;;;;;;;20.80;68.60;;;;;;5095013;28;19903;-58
2022/05/14 10:03:08;;;;;;;;;;;20.60;68.50;;;;;;5093756;28;19912;-58
2022/05/14 10:05:52;;;;;;;;;;;20.60;68.70;;;;;;5075251;28;19946;-59
2022/05/14 10:08:33;;;;;;;;;;;20.50;68.90;;;;;;5075139;28;20368;-58
2022/05/14 10:11:11;;;;;;;;;;;20.40;69.10;;;;;;5074402;28;19995;-59
2022/05/14 10:13:45;;;;;;;;;;;20.30;69.60;;;;;;5080903;28;20010;-59
2022/05/14 10:16:28;;;;;;;;;;;20.20;69.10;;;;;;5080691;28;19949;-58
2022/05/14 10:19:12;;;;;;;;;;;20.10;69.50;;;;;;5086874;28;20369;-59
2022/05/14 10:21:38;;;;;;;;;;;20.00;69.30;;;;;;5093106;28;20452;-59
2022/05/14 10:27:08;;;;;;;;;;;19.90;68.70;;;;;;5077921;28;20320;-59
2022/05/14 10:29:54;;;;;;;;;;;20.00;68.40;;;;;;5087315;28;20348;-58
2022/05/14 10:32:20;;;;;;;;;;;19.90;68.30;;;;;;5089324;28;19911;-59
2022/05/14 10:35:08;;;;;;;;;;;20.00;68.40;;;;;;5092711;28;19908;-59
2022/05/14 10:37:40;;;;;;;;;;;20.00;68.20;;;;;;5083248;28;19908;-59
2022/05/14 10:40:24;;;;;;;;;;;20.10;67.80;;;;;;5075946;28;20404;-59
2022/05/14 10:42:52;;;;;;;;;;;20.10;67.60;;;;;;5073004;28;19908;-59
2022/05/14 10:45:33;;;;;;;;;;;20.10;67.60;;;;;;5074052;28;19911;-59
2022/05/14 10:48:02;;;;;;;;;;;20.10;67.50;;;;;;5089137;28;19904;-59
2022/05/14 10:50:30;;;;;;;;;;;20.00;68.40;;;;;;5093310;28;19908;-59
2022/05/14 10:52:57;;;;;;;;;;;20.00;68.80;;;;;;5080240;28;19916;-59
2022/05/14 10:55:32;;;;;;;;;;;20.00;68.90;;;;;;5091935;28;19961;-59
2022/05/14 10:58:00;;;;;;;;;;;20.00;69.40;;;;;;5076875;28;19912;-59
2022/05/14 11:00:28;;;;;;;;;;;20.00;69.70;;;;;;5073473;28;19912;-59
2022/05/14 11:02:57;;;;;;;;;;;19.90;69.20;;;;;;5075863;28;20379;-59
2022/05/14 11:05:33;;;;;;;;;;;19.80;69.00;;;;;;5094067;28;19911;-59
2022/05/14 11:08:06;;;;;;;;;;;19.70;69.20;;;;;;5090940;28;20355;-60
2022/05/14 11:10:34;;;;;;;;;;;19.60;69.90;;;;;;5086575;28;19908;-59
2022/05/14 11:13:29;;;;;;;;;;;19.50;70.20;;;;;;5089153;28;20003;-60
2022/05/14 11:15:58;;;;;;;;;;;19.30;70.30;;;;;;5067028;28;20006;-60
2022/05/14 11:18:23;;;;;;;;;;;19.10;70.70;;;;;;5089797;28;19915;-59
2022/05/14 11:20:53;;;;;;;;;;;19.00;70.60;;;;;;5087253;28;19974;-60
2022/05/14 11:23:19;;;;;;;;;;;18.90;70.90;;;;;;5089333;28;20436;-60
2022/05/14 11:25:44;;;;;;;;;;;18.90;71.40;;;;;;5088289;28;19947;-60
2022/05/14 11:28:19;;;;;;;;;;;18.80;71.40;;;;;;5088734;28;19921;-60
2022/05/14 11:30:52;;;;;;;;;;;18.70;71.30;;;;;;5091563;28;19912;-60
2022/05/14 11:33:29;;;;;;;;;;;18.70;71.00;;;;;;5088127;28;19908;-60
2022/05/14 11:35:56;;;;;;;;;;;18.70;71.00;;;;;;5090554;28;19908;-60
2022/05/14 11:38:24;;;;;;;;;;;18.70;71.40;;;;;;5086403;28;19908;-60
2022/05/14 11:40:56;;;;;;;;;;;18.70;71.00;;;;;;5089458;28;20379;-60
2022/05/14 11:43:25;;;;;;;;;;;18.80;71.10;;;;;;5087099;28;19919;-60
2022/05/14 11:45:55;;;;;;;;;;;18.80;71.10;;;;;;5088702;28;20360;-60
2022/05/14 11:48:30;;;;;;;;;;;18.90;71.00;;;;;;5091373;28;20388;-60
2022/05/14 11:50:58;;;;;;;;;;;18.90;71.20;;;;;;5087278;28;19918;-60
2022/05/14 11:53:45;;;;;;;;;;;19.00;71.00;;;;;;5089443;28;19994;-60
2022/05/14 11:56:18;;;;;;;;;;;19.00;70.70;;;;;;5093267;28;19908;-59
2022/05/14 11:58:48;;;;;;;;;;;19.00;70.60;;;;;;5088486;28;19908;-60
2022/05/14 12:01:18;;;;;;;;;;;19.10;70.50;;;;;;5092634;28;19908;-60
2022/05/14 12:03:44;;;;;;;;;;;19.20;70.60;;;;;;5092930;28;19957;-60
2022/05/14 12:06:28;;;;;;;;;;;19.20;70.30;;;;;;5093500;28;20030;-60
2022/05/14 12:08:57;;;;;;;;;;;19.30;70.40;;;;;;5094791;28;19907;-60
2022/05/14 12:11:26;;;;;;;;;;;19.30;70.00;;;;;;5093591;28;19915;-60
2022/05/14 12:14:07;;;;;;;;;;;19.40;69.50;;;;;;5094360;28;19912;-60
2022/05/14 12:16:35;;;;;;;;;;;19.40;68.90;;;;;;5089822;28;19916;-59
2022/05/14 12:19:02;;;;;;;;;;;19.40;68.70;;;;;;5092316;28;19942;-60
2022/05/14 12:21:27;;;;;;;;;;;19.40;68.60;;;;;;5089319;28;19912;-59
2022/05/14 12:23:53;;;;;;;;;;;19.50;68.60;;;;;;5092885;28;19916;-59
2022/05/14 12:26:23;;;;;;;;;;;19.50;68.50;;;;;;5091278;28;19916;-60
2022/05/14 12:28:49;;;;;;;;;;;19.50;67.80;;;;;;5093541;28;20378;-60
2022/05/14 12:34:03;;;;;;;;;;;19.50;65.90;;;;;;5090204;28;19914;-60
2022/05/14 12:36:32;;;;;;;;;;;19.60;65.00;;;;;;5091475;28;19947;-60
2022/05/14 12:38:58;;;;;;;;;;;19.60;65.00;;;;;;5090920;28;19915;-60
2022/05/14 12:41:32;;;;;;;;;;;19.70;65.20;;;;;;5092388;28;19920;-60
2022/05/14 12:44:04;;;;;;;;;;;19.70;63.80;;;;;;5091984;28;19912;-60
2022/05/14 12:46:30;;;;;;;;;;;19.70;63.60;;;;;;5090675;28;19961;-60
2022/05/14 12:48:57;;;;;;;;;;;19.70;63.80;;;;;;5090694;28;20364;-60
2022/05/14 12:51:24;;;;;;;;;;;19.80;63.10;;;;;;5091394;28;20003;-60
2022/05/14 12:53:52;;;;;;;;;;;19.80;62.70;;;;;;5090978;28;20372;-60
2022/05/14 12:56:20;;;;;;;;;;;19.80;62.80;;;;;;5091747;28;19908;-60
2022/05/14 12:58:46;;;;;;;;;;;19.90;63.00;;;;;;5091633;28;19922;-60
2022/05/14 13:01:11;;;;;;;;;;;19.90;62.80;;;;;;5090620;28;19955;-60
2022/05/14 13:03:39;;;;;;;;;;;19.90;62.40;;;;;;5091621;28;19970;-60
2022/05/14 13:06:08;;;;;;;;;;;19.90;61.90;;;;;;5091043;28;19916;-59
2022/05/14 13:08:40;;;;;;;;;;;20.00;62.60;;;;;;5091744;28;19908;-60
2022/05/14 13:11:11;;;;;;;;;;;20.00;62.40;;;;;;5095498;28;19919;-60
2022/05/14 13:13:38;;;;;;;;;;;20.00;62.10;;;;;;5096063;28;19930;-60
2022/05/14 13:16:31;;;;;;;;;;;20.00;62.00;;;;;;5095601;28;19931;-60
2022/05/14 13:18:59;;;;;;;;;;;20.00;61.60;;;;;;5092463;28;19911;-60
2022/05/14 13:21:35;;;;;;;;;;;20.00;60.80;;;;;;5087287;28;19927;-60
2022/05/14 13:24:27;;;;;;;;;;;20.10;61.10;;;;;;5095570;28;19919;-60
2022/05/14 13:26:54;;;;;;;;;;;20.10;61.00;;;;;;5082229;28;19910;-60
2022/05/14 13:29:36;;;;;;;;;;;20.10;60.70;;;;;;5093857;28;20348;-59
2022/05/14 13:32:08;;;;;;;;;;;20.10;60.30;;;;;;5095614;28;20410;-60
2022/05/14 13:37:38;;;;;;;;;;;20.10;60.10;;;;;;5086937;28;19915;-60
2022/05/14 13:40:16;;;;;;;;;;;20.10;60.50;;;;;;5085513;28;19908;-60
2022/05/14 13:42:43;;;;;;;;;;;20.10;60.80;;;;;;5075106;28;19908;-60
2022/05/14 13:45:22;;;;;;;;;;;20.20;60.20;;;;;;5075003;28;19949;-60
2022/05/14 13:47:50;;;;;;;;;;;20.10;60.00;;;;;;5082016;28;20264;-60
2022/05/14 13:50:23;;;;;;;;;;;20.10;59.90;;;;;;5093846;28;19935;-60
2022/05/14 13:52:50;;;;;;;;;;;20.10;59.90;;;;;;5075664;28;20272;-59
2022/05/14 13:55:26;;;;;;;;;;;20.10;59.40;;;;;;5089037;28;20283;-60
2022/05/14 13:57:56;;;;;;;;;;;20.10;59.40;;;;;;5094949;28;19911;-60
2022/05/14 14:00:23;;;;;;;;;;;20.10;58.90;;;;;;5091554;28;20395;-60
2022/05/14 14:03:00;;;;;;;;;;;20.10;58.70;;;;;;5083682;28;19912;-59
2022/05/14 14:05:26;;;;;;;;;;;20.10;58.50;;;;;;5074789;28;19908;-60
2022/05/14 14:07:52;;;;;;;;;;;20.10;58.90;;;;;;5074539;28;20405;-60
2022/05/14 14:10:18;;;;;;;;;;;20.10;58.80;;;;;;5088714;28;20322;-60
2022/05/14 14:12:45;;;;;;;;;;;20.20;58.80;;;;;;5094715;28;19935;-60
2022/05/14 14:15:15;;;;;;;;;;;20.20;58.60;;;;;;5094390;28;19911;-60
2022/05/14 14:17:41;;;;;;;;;;;20.20;57.90;;;;;;5093570;28;19943;-60
2022/05/14 14:20:07;;;;;;;;;;;20.20;57.40;;;;;;5092666;28;19907;-60
2022/05/14 14:22:33;;;;;;;;;;;20.30;57.20;;;;;;5082541;28;20416;-60
2022/05/14 14:24:59;;;;;;;;;;;20.30;57.50;;;;;;5086930;28;19904;-60
2022/05/14 14:27:26;;;;;;;;;;;20.30;58.10;;;;;;5089177;28;19912;-60
2022/05/14 14:29:53;;;;;;;;;;;20.30;58.20;;;;;;5078362;28;19939;-60
2022/05/14 14:32:19;;;;;;;;;;;20.30;59.00;;;;;;5074252;28;19912;-60
2022/05/14 14:34:44;;;;;;;;;;;20.30;58.80;;;;;;5084327;28;19911;-60
2022/05/14 14:37:10;;;;;;;;;;;20.30;58.60;;;;;;5088975;28;20307;-60
2022/05/14 14:39:35;;;;;;;;;;;20.30;58.20;;;;;;5083370;28;19912;-60
2022/05/14 14:42:01;;;;;;;;;;;20.30;58.90;;;;;;5077590;28;19904;-60
2022/05/14 14:44:27;;;;;;;;;;;20.20;58.40;;;;;;5077115;28;19990;-60
2022/05/14 14:46:52;;;;;;;;;;;20.20;58.10;;;;;;5089554;28;19998;-60
2022/05/14 14:49:18;;;;;;;;;;;20.20;58.20;;;;;;5093670;28;19916;-60